createdAt,value
2023-02-13T00:00:19.086Z,34.77
2023-02-13T00:02:46.594Z,37.30
2023-02-13T00:05:14.281Z,34.77
2023-02-13T00:07:41.657Z,34.60
2023-02-13T00:10:09.842Z,35.37
2023-02-13T00:12:37.230Z,45.93
2023-02-13T00:15:05.054Z,45.10
2023-02-13T00:17:32.588Z,44.30
2023-02-13T00:20:00.258Z,39.40
2023-02-13T00:22:27.707Z,41.70
2023-02-13T00:24:55.049Z,38.70
2023-02-13T00:27:22.371Z,42.00
2023-02-13T00:29:49.989Z,44.63
2023-02-13T00:32:17.478Z,42.00
2023-02-13T00:34:44.927Z,38.90
2023-02-13T00:37:12.340Z,39.93
2023-02-13T00:39:39.697Z,37.97
2023-02-13T00:42:07.082Z,38.93
2023-02-13T00:44:34.542Z,39.00
2023-02-13T00:47:02.049Z,39.77
2023-02-13T00:49:29.474Z,39.17
2023-02-13T00:51:56.804Z,38.10
2023-02-13T00:54:24.135Z,42.57
2023-02-13T00:56:51.529Z,39.03
2023-02-13T00:59:18.857Z,42.90
2023-02-13T01:01:46.295Z,41.70
2023-02-13T01:04:14.232Z,41.77
2023-02-13T01:06:41.643Z,45.50
2023-02-13T01:09:09.706Z,45.17
2023-02-13T01:11:37.885Z,38.47
2023-02-13T01:14:05.342Z,40.90
2023-02-13T01:16:32.715Z,40.87
2023-02-13T01:19:00.084Z,42.17
2023-02-13T01:21:27.658Z,37.67
2023-02-13T01:23:55.074Z,41.10
2023-02-13T01:26:24.208Z,36.37
2023-02-13T01:28:55.264Z,42.97
2023-02-13T01:31:22.985Z,35.60
2023-02-13T01:33:51.455Z,46.83
2023-02-13T01:36:22.388Z,42.90
2023-02-13T01:38:53.103Z,35.77
2023-02-13T01:41:20.465Z,41.57
2023-02-13T01:43:52.986Z,39.30
2023-02-13T01:46:26.950Z,40.37
2023-02-13T01:48:56.898Z,39.30
2023-02-13T01:51:30.270Z,38.47
2023-02-13T01:54:08.853Z,42.13
2023-02-13T01:56:39.707Z,39.47
2023-02-13T01:59:12.081Z,37.60
2023-02-13T02:01:39.928Z,34.30
2023-02-13T02:04:11.095Z,33.63
2023-02-13T02:06:50.425Z,39.53
2023-02-13T02:09:27.938Z,31.17
2023-02-13T02:12:13.913Z,28.57
2023-02-13T02:14:42.022Z,31.10
2023-02-13T02:17:11.169Z,22.37
2023-02-13T02:19:45.422Z,23.33
2023-02-13T02:22:22.081Z,22.83
2023-02-13T02:25:03.618Z,23.43
2023-02-13T02:27:50.968Z,19.40
2023-02-13T02:30:31.988Z,22.73
2023-02-13T02:33:22.929Z,17.80
2023-02-13T02:35:52.019Z,21.47
2023-02-13T02:38:19.432Z,19.83
2023-02-13T02:41:09.999Z,20.93
2023-02-13T02:43:41.132Z,18.50
2023-02-13T02:46:14.455Z,20.73
2023-02-13T02:49:19.392Z,19.07
2023-02-13T02:51:56.148Z,22.90
2023-02-13T02:54:45.602Z,19.77
2023-02-13T02:57:18.227Z,19.97
2023-02-13T03:00:12.611Z,16.80
2023-02-13T03:02:58.540Z,19.20
2023-02-13T03:05:49.121Z,20.60
2023-02-13T03:08:37.300Z,15.43
2023-02-13T03:11:44.993Z,18.70
2023-02-13T03:14:14.269Z,16.80
2023-02-13T03:17:00.470Z,17.47
2023-02-13T03:20:02.520Z,19.03
2023-02-13T03:22:29.952Z,18.70
2023-02-13T03:25:04.276Z,21.87
2023-02-13T03:27:50.542Z,19.10
2023-02-13T03:30:18.048Z,15.27
2023-02-13T03:32:58.230Z,21.93
2023-02-13T03:35:47.180Z,20.17
2023-02-13T03:38:17.529Z,17.67
2023-02-13T03:41:18.937Z,20.27
2023-02-13T03:43:52.456Z,18.53
2023-02-13T03:46:20.578Z,19.57
2023-02-13T03:49:07.344Z,19.07
2023-02-13T03:51:38.293Z,19.77
2023-02-13T03:54:07.732Z,19.87
2023-02-13T03:56:54.317Z,21.80
2023-02-13T03:59:27.435Z,20.57
2023-02-13T04:02:04.663Z,25.23
2023-02-13T04:04:36.036Z,18.87
2023-02-13T04:07:05.446Z,22.63
2023-02-13T04:09:34.633Z,27.13
2023-02-13T04:12:14.329Z,23.63
2023-02-13T04:14:47.124Z,23.17
2023-02-13T04:17:23.642Z,30.03
2023-02-13T04:19:51.212Z,23.37
2023-02-13T04:22:19.014Z,22.57
2023-02-13T04:24:46.518Z,24.87
2023-02-13T04:27:15.095Z,25.67
2023-02-13T04:29:42.720Z,29.07
2023-02-13T04:32:14.211Z,23.80
2023-02-13T04:34:41.521Z,23.20
2023-02-13T04:37:08.925Z,25.83
2023-02-13T04:39:36.254Z,27.27
2023-02-13T04:42:03.572Z,22.73
2023-02-13T04:44:30.857Z,30.00
2023-02-13T04:46:58.150Z,30.77
2023-02-13T04:49:25.406Z,33.90
2023-02-13T04:51:52.701Z,32.13
2023-02-13T04:54:20.091Z,33.37
2023-02-13T04:56:47.409Z,32.70
2023-02-13T04:59:14.989Z,37.00
2023-02-13T05:01:42.338Z,45.37
2023-02-13T05:04:11.221Z,39.50
2023-02-13T05:06:38.596Z,38.17
2023-02-13T05:09:06.084Z,36.37
2023-02-13T05:11:33.436Z,37.03
2023-02-13T05:14:00.840Z,44.43
2023-02-13T05:16:28.335Z,45.57
2023-02-13T05:18:55.666Z,44.15
2023-02-13T05:21:42.047Z,49.17
2023-02-13T05:24:09.397Z,45.20
2023-02-13T05:26:36.876Z,43.93
2023-02-13T05:29:19.210Z,45.47
2023-02-13T05:31:52.661Z,44.37
2023-02-13T05:34:20.917Z,47.00
2023-02-13T05:36:48.440Z,44.87
2023-02-13T05:39:16.032Z,48.37
2023-02-13T05:41:44.693Z,42.53
2023-02-13T05:44:12.661Z,44.03
2023-02-13T05:46:40.985Z,38.67
2023-02-13T05:49:09.049Z,45.83
2023-02-13T05:51:36.631Z,41.30
2023-02-13T05:54:04.018Z,35.93
2023-02-13T05:56:31.340Z,37.23
2023-02-13T05:58:59.700Z,32.70
2023-02-13T06:01:27.048Z,30.53
2023-02-13T06:03:54.459Z,35.03
2023-02-13T06:06:22.789Z,29.70
2023-02-13T06:08:50.882Z,31.43
2023-02-13T06:11:18.864Z,30.57
2023-02-13T06:13:46.269Z,31.37
2023-02-13T06:16:13.919Z,31.63
2023-02-13T06:18:41.266Z,31.33
2023-02-13T06:21:08.623Z,36.80
2023-02-13T06:23:35.902Z,35.20
2023-02-13T06:26:04.587Z,31.07
2023-02-13T06:28:32.074Z,24.80
2023-02-13T06:31:00.499Z,31.50
2023-02-13T06:33:28.145Z,26.60
2023-02-13T06:35:55.614Z,27.80
2023-02-13T06:38:23.605Z,29.20
2023-02-13T06:40:51.095Z,24.53
2023-02-13T06:43:18.930Z,25.07
2023-02-13T06:45:47.194Z,30.00
2023-02-13T06:48:15.104Z,30.07
2023-02-13T06:50:42.422Z,29.17
2023-02-13T06:53:09.762Z,29.60
2023-02-13T06:55:39.449Z,27.53
2023-02-13T06:58:07.123Z,33.97
2023-02-13T07:00:34.801Z,27.83
2023-02-13T07:03:03.547Z,30.33
2023-02-13T07:05:31.536Z,27.27
2023-02-13T07:07:59.086Z,26.80
2023-02-13T07:10:26.415Z,23.10
2023-02-13T07:13:04.975Z,21.93
2023-02-13T07:15:34.087Z,29.47
2023-02-13T07:18:01.838Z,28.87
2023-02-13T07:20:29.327Z,25.73
2023-02-13T07:23:00.026Z,27.17
2023-02-13T07:25:27.549Z,28.37
2023-02-13T07:27:54.933Z,26.50
2023-02-13T07:30:22.296Z,23.20
2023-02-13T07:32:49.630Z,24.63
2023-02-13T07:35:16.890Z,24.87
2023-02-13T07:37:44.160Z,26.27
2023-02-13T07:40:11.972Z,28.47
2023-02-13T07:42:39.252Z,26.20
2023-02-13T07:45:07.594Z,30.97
2023-02-13T07:47:35.186Z,25.37
2023-02-13T07:50:03.175Z,31.80
2023-02-13T07:52:30.806Z,31.73
2023-02-13T07:54:58.122Z,31.60
2023-02-13T07:57:25.611Z,32.30
2023-02-13T07:59:52.920Z,32.43
2023-02-13T08:02:20.262Z,31.97
2023-02-13T08:04:47.526Z,34.90
2023-02-13T08:07:15.404Z,25.60
2023-02-13T08:10:03.059Z,29.47
2023-02-13T08:12:30.985Z,30.37
2023-02-13T08:15:00.639Z,26.03
2023-02-13T08:17:27.922Z,23.83
2023-02-13T08:19:55.402Z,24.33
2023-02-13T08:22:22.830Z,25.20
2023-02-13T08:24:50.111Z,27.50
2023-02-13T08:27:17.510Z,25.23
2023-02-13T08:29:45.156Z,30.23
2023-02-13T08:32:12.687Z,25.10
2023-02-13T08:34:40.075Z,24.53
2023-02-13T08:37:07.361Z,29.63
2023-02-13T08:39:34.669Z,23.20
2023-02-13T08:42:02.219Z,27.33
2023-02-13T08:44:29.554Z,29.50
2023-02-13T08:46:57.301Z,24.13
2023-02-13T08:49:24.614Z,26.30
2023-02-13T08:51:51.952Z,27.80
2023-02-13T08:54:19.253Z,22.70
2023-02-13T08:56:46.636Z,25.57
2023-02-13T08:59:13.891Z,20.57
2023-02-13T09:01:41.606Z,25.53
2023-02-13T09:04:09.117Z,33.27
2023-02-13T09:06:36.439Z,23.83
2023-02-13T09:09:05.831Z,22.30
2023-02-13T09:11:33.075Z,21.83
2023-02-13T09:14:00.585Z,24.53
2023-02-13T09:16:28.232Z,26.53
2023-02-13T09:18:55.571Z,24.90
2023-02-13T09:21:23.760Z,29.73
2023-02-13T09:23:51.590Z,23.07
2023-02-13T09:26:20.673Z,21.37
2023-02-13T09:28:48.302Z,24.87
2023-02-13T09:31:17.268Z,31.27
2023-02-13T09:33:45.828Z,22.57
2023-02-13T09:36:19.161Z,27.30
2023-02-13T09:38:47.564Z,22.20
2023-02-13T09:41:23.141Z,20.57
2023-02-13T09:43:52.883Z,23.93
2023-02-13T09:46:35.715Z,23.93
2023-02-13T09:49:08.132Z,22.63
2023-02-13T09:51:35.804Z,23.80
2023-02-13T09:54:04.489Z,23.87
2023-02-13T09:56:38.342Z,26.63
2023-02-13T09:59:17.444Z,24.13
2023-02-13T10:01:46.483Z,24.13
2023-02-13T10:04:21.433Z,21.27
2023-02-13T10:06:51.687Z,21.60
2023-02-13T10:09:39.077Z,24.50
2023-02-13T10:12:13.904Z,23.73
2023-02-13T10:14:44.319Z,23.53
2023-02-13T10:17:24.198Z,18.03
2023-02-13T10:19:55.563Z,24.70
2023-02-13T10:22:26.607Z,20.17
2023-02-13T10:24:57.697Z,23.63
2023-02-13T10:27:26.467Z,20.60
2023-02-13T10:30:05.225Z,18.37
2023-02-13T10:32:48.768Z,17.57
2023-02-13T10:35:20.810Z,14.63
2023-02-13T10:37:53.384Z,14.83
2023-02-13T10:40:21.157Z,15.07
2023-02-13T10:42:55.830Z,14.60
2023-02-13T10:45:26.149Z,15.13
2023-02-13T10:48:00.208Z,19.57
2023-02-13T10:50:31.520Z,18.60
2023-02-13T10:53:08.386Z,17.83
2023-02-13T10:56:08.241Z,17.67
2023-02-13T10:58:58.774Z,16.43
2023-02-13T11:01:38.391Z,12.60
2023-02-13T11:04:12.956Z,14.60
2023-02-13T11:06:47.137Z,15.67
2023-02-13T11:09:14.769Z,15.50
2023-02-13T11:11:43.893Z,17.50
2023-02-13T11:14:12.885Z,14.03
2023-02-13T11:16:41.898Z,20.00
2023-02-13T11:19:18.083Z,17.40
2023-02-13T11:21:46.317Z,14.93
2023-02-13T11:24:21.492Z,14.77
2023-02-13T11:26:51.751Z,14.70
2023-02-13T11:29:23.036Z,15.70
2023-02-13T11:32:02.417Z,14.53
2023-02-13T11:34:30.908Z,16.73
2023-02-13T11:37:16.241Z,14.37
2023-02-13T11:39:44.469Z,14.13
2023-02-13T11:42:14.376Z,13.70
2023-02-13T11:44:42.975Z,15.87
2023-02-13T11:47:10.427Z,13.30
2023-02-13T11:49:39.603Z,14.67
2023-02-13T11:52:08.059Z,13.57
2023-02-13T11:54:43.634Z,15.17
2023-02-13T11:57:22.374Z,15.07
2023-02-13T11:59:50.979Z,14.73
2023-02-13T12:02:20.350Z,16.13
2023-02-13T12:04:48.937Z,13.63
2023-02-13T12:07:24.021Z,15.73
2023-02-13T12:09:58.472Z,13.70
2023-02-13T12:12:58.457Z,14.20
2023-02-13T12:15:27.955Z,17.10
2023-02-13T12:18:01.597Z,13.93
2023-02-13T12:20:30.414Z,14.67
2023-02-13T12:22:57.854Z,16.60
2023-02-13T12:25:39.864Z,12.70
2023-02-13T12:28:20.500Z,19.37
2023-02-13T12:31:05.868Z,12.97
2023-02-13T12:33:36.301Z,15.93
2023-02-13T12:36:22.122Z,15.33
2023-02-13T12:38:55.586Z,12.27
2023-02-13T12:41:33.199Z,12.57
2023-02-13T12:44:22.511Z,14.67
2023-02-13T12:46:50.039Z,15.57
2023-02-13T12:49:36.188Z,9.77
2023-02-13T12:52:03.578Z,14.00
2023-02-13T12:54:37.403Z,12.50
2023-02-13T12:57:37.127Z,12.93
2023-02-13T13:00:21.565Z,10.07
2023-02-13T13:03:09.139Z,11.20
2023-02-13T13:05:37.633Z,13.20
2023-02-13T13:08:04.960Z,12.77
2023-02-13T13:10:36.437Z,9.73
2023-02-13T13:13:03.788Z,13.00
2023-02-13T13:15:31.173Z,13.20
2023-02-13T13:18:03.082Z,12.67
2023-02-13T13:20:42.517Z,13.77
2023-02-13T13:23:13.992Z,12.30
2023-02-13T13:25:56.897Z,13.23
2023-02-13T13:28:26.784Z,10.70
2023-02-13T13:30:54.546Z,11.60
2023-02-13T13:33:24.420Z,11.33
2023-02-13T13:36:10.638Z,14.90
2023-02-13T13:38:51.863Z,12.80
2023-02-13T13:41:24.415Z,11.30
2023-02-13T13:43:58.971Z,15.33
2023-02-13T13:46:47.205Z,17.57
2023-02-13T13:49:38.012Z,12.43
2023-02-13T13:52:20.323Z,16.17
2023-02-13T13:54:51.608Z,9.80
2023-02-13T13:57:28.522Z,9.33
2023-02-13T13:59:57.480Z,9.80
2023-02-13T14:02:24.896Z,11.03
2023-02-13T14:05:01.474Z,10.70
2023-02-13T14:07:35.077Z,9.63
2023-02-13T14:10:02.710Z,15.60
2023-02-13T14:12:30.052Z,8.03
2023-02-13T14:14:58.263Z,11.10
2023-02-13T14:17:43.934Z,9.60
2023-02-13T14:20:22.319Z,9.63
2023-02-13T14:22:49.962Z,10.13
2023-02-13T14:25:28.009Z,11.90
2023-02-13T14:28:00.299Z,9.40
2023-02-13T14:30:27.762Z,11.47
2023-02-13T14:32:55.345Z,8.23
2023-02-13T14:35:28.123Z,10.93
2023-02-13T14:37:59.241Z,10.47
2023-02-13T14:40:47.527Z,9.67
2023-02-13T14:43:23.807Z,8.50
2023-02-13T14:45:56.050Z,7.97
2023-02-13T14:48:28.696Z,8.73
2023-02-13T14:50:57.711Z,9.23
2023-02-13T14:53:27.962Z,8.30
2023-02-13T14:56:15.058Z,8.70
2023-02-13T14:58:48.119Z,14.40
2023-02-13T15:01:33.878Z,7.00
2023-02-13T15:04:06.781Z,10.50
2023-02-13T15:06:40.444Z,6.50
2023-02-13T15:09:16.076Z,9.10
2023-02-13T15:11:44.742Z,8.87
2023-02-13T15:14:21.030Z,5.80
2023-02-13T15:17:07.287Z,9.10
2023-02-13T15:19:36.962Z,8.83
2023-02-13T15:22:06.053Z,11.70
2023-02-13T15:24:38.419Z,8.77
2023-02-13T15:27:08.054Z,7.00
2023-02-13T15:29:49.347Z,5.87
2023-02-13T15:32:21.581Z,7.93
2023-02-13T15:34:49.575Z,5.33
2023-02-13T15:37:24.336Z,7.17
2023-02-13T15:39:51.695Z,8.33
2023-02-13T15:42:19.258Z,6.80
2023-02-13T15:44:48.546Z,6.47
2023-02-13T15:47:34.632Z,9.17
2023-02-13T15:50:02.244Z,18.20
2023-02-13T15:52:35.312Z,11.07
2023-02-13T15:55:03.297Z,8.20
2023-02-13T15:57:30.739Z,7.57
2023-02-13T15:59:59.482Z,13.93
2023-02-13T16:02:30.628Z,8.13
2023-02-13T16:04:58.426Z,7.80
2023-02-13T16:07:25.821Z,6.93
2023-02-13T16:09:53.758Z,7.87
2023-02-13T16:12:25.073Z,10.20
2023-02-13T16:14:54.433Z,9.57
2023-02-13T16:17:40.782Z,13.30
2023-02-13T16:20:08.339Z,7.13
2023-02-13T16:22:38.890Z,9.30
2023-02-13T16:25:25.148Z,10.70
2023-02-13T16:27:54.704Z,12.00
2023-02-13T16:30:35.889Z,9.30
2023-02-13T16:33:15.487Z,17.33
2023-02-13T16:35:44.412Z,9.63
2023-02-13T16:38:28.817Z,11.33
2023-02-13T16:41:19.524Z,15.43
2023-02-13T16:43:47.001Z,15.47
2023-02-13T16:46:20.525Z,15.20
2023-02-13T16:48:56.911Z,14.37
2023-02-13T16:51:30.436Z,12.87
2023-02-13T16:53:59.062Z,11.50
2023-02-13T16:56:26.579Z,15.33
2023-02-13T16:59:26.258Z,12.23
2023-02-13T17:02:03.536Z,14.97
2023-02-13T17:04:31.271Z,12.80
2023-02-13T17:06:58.637Z,12.47
2023-02-13T17:09:25.996Z,14.60
2023-02-13T17:11:54.047Z,12.83
2023-02-13T17:14:21.667Z,17.03
2023-02-13T17:16:49.554Z,13.60
2023-02-13T17:19:16.916Z,15.60
2023-02-13T17:21:44.389Z,13.50
2023-02-13T17:24:17.632Z,16.10
2023-02-13T17:26:45.015Z,18.83
2023-02-13T17:29:12.375Z,13.67
2023-02-13T17:31:39.887Z,23.13
2023-02-13T17:34:07.353Z,16.47
2023-02-13T17:36:34.713Z,17.47
2023-02-13T17:39:02.074Z,19.20
2023-02-13T17:41:29.805Z,17.90
2023-02-13T17:43:57.169Z,15.53
2023-02-13T17:46:24.615Z,20.13
2023-02-13T17:48:52.599Z,12.87
2023-02-13T17:51:20.086Z,15.83
2023-02-13T17:53:50.472Z,15.23
2023-02-13T17:56:18.283Z,20.13
2023-02-13T17:58:45.653Z,17.73
2023-02-13T18:01:13.101Z,19.37
2023-02-13T18:03:40.567Z,19.77
2023-02-13T18:06:11.974Z,18.20
2023-02-13T18:08:39.356Z,20.80
2023-02-13T18:11:10.675Z,23.67
2023-02-13T18:13:38.151Z,21.07
2023-02-13T18:16:08.706Z,19.57
2023-02-13T18:18:36.105Z,16.60
2023-02-13T18:21:03.480Z,18.10
2023-02-13T18:23:30.859Z,15.13
2023-02-13T18:26:05.441Z,18.87
2023-02-13T18:28:32.885Z,20.07
2023-02-13T18:31:00.769Z,34.57
2023-02-13T18:33:28.390Z,25.17
2023-02-13T18:36:00.281Z,26.17
2023-02-13T18:38:27.942Z,18.43
2023-02-13T18:40:55.491Z,21.20
2023-02-13T18:43:22.887Z,25.40
2023-02-13T18:45:50.537Z,22.37
2023-02-13T18:48:17.932Z,23.50
2023-02-13T18:50:45.398Z,27.97
2023-02-13T18:53:12.798Z,21.83
2023-02-13T18:55:40.348Z,22.23
2023-02-13T18:58:08.907Z,24.43
2023-02-13T19:00:36.325Z,22.27
2023-02-13T19:03:03.689Z,19.47
2023-02-13T19:05:31.186Z,21.53
2023-02-13T19:08:00.678Z,25.77
2023-02-13T19:10:28.459Z,26.80
2023-02-13T19:12:55.837Z,29.13
2023-02-13T19:15:23.222Z,33.70
2023-02-13T19:17:50.817Z,27.53
2023-02-13T19:20:18.255Z,24.83
2023-02-13T19:22:45.676Z,30.30
2023-02-13T19:25:12.987Z,31.00
2023-02-13T19:27:40.896Z,33.37
2023-02-13T19:30:09.654Z,30.87
2023-02-13T19:32:37.142Z,31.80
2023-02-13T19:35:04.960Z,45.00
2023-02-13T19:37:43.084Z,35.57
2023-02-13T19:40:12.115Z,31.37
2023-02-13T19:42:40.285Z,31.53
2023-02-13T19:45:07.982Z,41.17
2023-02-13T19:47:35.427Z,38.83
2023-02-13T19:50:03.148Z,31.60
2023-02-13T19:52:30.562Z,38.37
2023-02-13T19:54:57.982Z,32.97
2023-02-13T19:57:25.407Z,29.67
2023-02-13T19:59:52.852Z,29.77
2023-02-13T20:02:21.583Z,35.20
2023-02-13T20:04:49.033Z,28.53
2023-02-13T20:07:16.465Z,29.93
2023-02-13T20:09:43.881Z,40.00
2023-02-13T20:12:11.271Z,36.27
2023-02-13T20:14:38.741Z,32.30
2023-02-13T20:17:06.344Z,28.90
2023-02-13T20:19:33.794Z,34.33
2023-02-13T20:22:01.876Z,49.43
2023-02-13T20:24:29.550Z,42.97
2023-02-13T20:26:58.852Z,41.03
2023-02-13T20:29:26.274Z,42.67
2023-02-13T20:31:54.108Z,35.93
2023-02-13T20:34:21.559Z,35.10
2023-02-13T20:36:48.948Z,43.03
2023-02-13T20:39:16.300Z,33.20
2023-02-13T20:41:48.507Z,40.43
2023-02-13T20:44:17.222Z,45.20
2023-02-13T20:46:44.618Z,42.73
2023-02-13T20:49:12.847Z,36.27
2023-02-13T20:51:40.270Z,43.43
2023-02-13T20:54:07.636Z,37.43
2023-02-13T20:56:35.078Z,38.00
2023-02-13T20:59:03.397Z,42.33
2023-02-13T21:01:37.286Z,45.43
2023-02-13T21:04:04.779Z,35.77
2023-02-13T21:06:33.320Z,35.93
2023-02-13T21:09:00.812Z,40.30
2023-02-13T21:11:29.348Z,32.73
2023-02-13T21:13:59.899Z,34.30
2023-02-13T21:16:29.145Z,38.93
2023-02-13T21:18:57.884Z,46.30
2023-02-13T21:21:26.258Z,37.57
2023-02-13T21:23:57.290Z,38.77
2023-02-13T21:26:25.482Z,34.43
2023-02-13T21:28:53.261Z,48.73
2023-02-13T21:31:23.778Z,35.77
2023-02-13T21:33:51.332Z,36.30
2023-02-13T21:36:18.791Z,39.50
2023-02-13T21:38:46.191Z,36.87
2023-02-13T21:41:14.553Z,36.80
2023-02-13T21:43:46.507Z,33.20
2023-02-13T21:46:13.892Z,40.27
2023-02-13T21:48:42.127Z,36.67
2023-02-13T21:51:10.541Z,36.20
2023-02-13T21:53:38.477Z,33.93
2023-02-13T21:56:06.578Z,37.73
2023-02-13T21:58:34.577Z,40.53
2023-02-13T22:01:02.485Z,43.70
2023-02-13T22:03:30.142Z,38.53
2023-02-13T22:05:57.494Z,43.17
2023-02-13T22:08:24.869Z,47.63
2023-02-13T22:10:56.188Z,51.70
2023-02-13T22:13:24.273Z,47.07
2023-02-13T22:16:01.257Z,42.50
2023-02-13T22:18:30.912Z,53.40
2023-02-13T22:20:59.137Z,44.77
2023-02-13T22:23:26.710Z,35.17
2023-02-13T22:25:54.067Z,33.53
2023-02-13T22:28:21.643Z,32.67
2023-02-13T22:30:49.079Z,29.60
2023-02-13T22:33:16.531Z,38.80
2023-02-13T22:35:44.240Z,35.90
2023-02-13T22:38:12.567Z,37.50
2023-02-13T22:40:40.142Z,33.73
2023-02-13T22:43:08.014Z,41.67
2023-02-13T22:45:38.809Z,51.87
2023-02-13T22:48:06.881Z,44.60
2023-02-13T22:50:34.582Z,44.50
2023-02-13T22:53:02.631Z,41.17
2023-02-13T22:55:29.971Z,39.63
2023-02-13T22:57:58.386Z,33.80
2023-02-13T23:00:26.470Z,34.13
2023-02-13T23:02:54.902Z,35.93
2023-02-13T23:05:22.884Z,36.17
2023-02-13T23:07:51.139Z,39.27
2023-02-13T23:10:21.837Z,33.10
2023-02-13T23:12:49.975Z,41.17
2023-02-13T23:15:17.365Z,46.43
2023-02-13T23:18:03.344Z,43.77
2023-02-13T23:20:31.586Z,48.17
2023-02-13T23:23:00.018Z,41.43
2023-02-13T23:25:28.183Z,40.60
2023-02-13T23:27:58.115Z,37.37
2023-02-13T23:30:26.799Z,41.17
2023-02-13T23:32:54.448Z,37.23
2023-02-13T23:35:21.949Z,35.77
2023-02-13T23:37:49.360Z,36.33
2023-02-13T23:40:17.256Z,37.63
2023-02-13T23:42:44.960Z,39.50
2023-02-13T23:45:12.454Z,42.70
2023-02-13T23:47:40.006Z,42.20
2023-02-13T23:50:08.387Z,31.30
2023-02-13T23:52:35.735Z,38.00
2023-02-13T23:55:03.309Z,43.20
2023-02-13T23:57:30.751Z,39.37
2023-02-13T23:59:58.080Z,42.47
